createdAt,value
2023-04-06T00:01:01.097Z,6.73
2023-04-06T00:04:43.863Z,7.23
2023-04-06T00:08:27.310Z,7.10
2023-04-06T00:12:10.054Z,7.00
2023-04-06T00:15:52.803Z,6.50
2023-04-06T00:19:37.011Z,7.37
2023-04-06T00:23:19.933Z,7.13
2023-04-06T00:27:03.095Z,7.53
2023-04-06T00:30:45.832Z,7.97
2023-04-06T00:34:28.595Z,7.67
2023-04-06T00:38:12.670Z,6.63
2023-04-06T00:41:56.042Z,7.20
2023-04-06T00:45:40.459Z,7.83
2023-04-06T00:49:23.233Z,7.63
2023-04-06T00:53:06.125Z,8.57
2023-04-06T00:56:50.254Z,9.60
2023-04-06T01:00:34.142Z,8.13
2023-04-06T01:04:17.224Z,7.20
2023-04-06T01:07:59.972Z,7.27
2023-04-06T01:11:42.712Z,7.37
2023-04-06T01:15:27.985Z,6.87
2023-04-06T01:19:13.050Z,7.10
2023-04-06T01:22:57.150Z,7.07
2023-04-06T01:26:40.469Z,7.40
2023-04-06T01:30:26.170Z,6.63
2023-04-06T01:34:09.047Z,7.17
2023-04-06T01:37:51.834Z,5.87
2023-04-06T01:41:36.072Z,5.73
2023-04-06T01:45:18.778Z,6.30
2023-04-06T01:49:01.594Z,5.87
2023-04-06T01:52:44.341Z,6.30
2023-04-06T01:56:27.481Z,6.33
2023-04-06T02:00:13.217Z,5.97
2023-04-06T02:03:56.034Z,5.77
2023-04-06T02:07:38.874Z,6.90
2023-04-06T02:11:21.613Z,6.73
2023-04-06T02:15:04.628Z,6.33
2023-04-06T02:18:48.759Z,6.70
2023-04-06T02:22:31.478Z,7.13
2023-04-06T02:26:14.171Z,6.80
2023-04-06T02:29:56.906Z,5.87
2023-04-06T02:33:39.695Z,7.00
2023-04-06T02:37:24.929Z,6.80
2023-04-06T02:41:07.737Z,6.83
2023-04-06T02:44:50.657Z,6.20
2023-04-06T02:48:36.942Z,6.90
2023-04-06T02:52:19.916Z,6.20
2023-04-06T02:56:04.125Z,7.10
2023-04-06T02:59:46.948Z,7.10
2023-04-06T03:03:29.732Z,6.83
2023-04-06T03:07:12.917Z,6.73
2023-04-06T03:10:55.899Z,6.97
2023-04-06T03:14:40.016Z,6.70
2023-04-06T03:18:23.948Z,7.33
2023-04-06T03:22:06.699Z,7.20
2023-04-06T03:25:49.457Z,7.17
2023-04-06T03:29:32.278Z,7.47
2023-04-06T03:33:16.374Z,7.13
2023-04-06T03:37:09.355Z,7.63
2023-04-06T03:40:52.927Z,7.23
2023-04-06T03:44:35.722Z,7.63
2023-04-06T03:48:19.827Z,8.03
2023-04-06T03:52:03.156Z,7.70
2023-04-06T03:55:46.018Z,7.60
2023-04-06T03:59:28.863Z,8.43
2023-04-06T04:03:11.748Z,7.83
2023-04-06T04:06:56.106Z,7.13
2023-04-06T04:10:38.878Z,7.73
2023-04-06T04:14:21.615Z,8.00
2023-04-06T04:18:04.595Z,7.03
2023-04-06T04:21:48.605Z,7.20
2023-04-06T04:25:32.736Z,7.53
2023-04-06T04:29:16.293Z,8.10
2023-04-06T04:32:59.256Z,8.13
2023-04-06T04:36:43.015Z,7.50
2023-04-06T04:40:25.810Z,7.90
2023-04-06T04:44:12.820Z,7.77
2023-04-06T04:47:55.780Z,8.20
2023-04-06T04:51:38.647Z,8.33
2023-04-06T04:55:21.509Z,7.80
2023-04-06T04:59:04.307Z,8.57
2023-04-06T05:02:48.529Z,9.07
2023-04-06T05:06:31.932Z,9.13
2023-04-06T05:10:14.855Z,8.90
2023-04-06T05:13:59.813Z,8.30
2023-04-06T05:17:43.307Z,8.50
2023-04-06T05:21:29.107Z,7.97
2023-04-06T05:25:12.013Z,8.30
2023-04-06T05:28:55.669Z,8.30
2023-04-06T05:32:38.783Z,8.27
2023-04-06T05:36:21.545Z,9.20
2023-04-06T05:40:09.220Z,8.63
2023-04-06T05:43:51.970Z,8.53
2023-04-06T05:47:34.780Z,19.83
2023-04-06T05:51:17.595Z,8.70
2023-04-06T05:55:00.336Z,9.50
2023-04-06T05:58:44.675Z,8.50
2023-04-06T06:02:27.563Z,7.97
2023-04-06T06:06:10.396Z,8.40
2023-04-06T06:09:53.114Z,8.47
2023-04-06T06:13:35.856Z,9.30
2023-04-06T06:17:20.034Z,9.17
2023-04-06T06:21:02.944Z,8.70
2023-04-06T06:24:45.927Z,8.93
2023-04-06T06:28:28.886Z,8.90
2023-04-06T06:32:11.680Z,8.57
2023-04-06T06:35:55.840Z,8.83
2023-04-06T06:39:38.585Z,8.80
2023-04-06T06:43:21.312Z,8.27
2023-04-06T06:47:04.080Z,8.43
2023-04-06T06:50:47.006Z,8.17
2023-04-06T06:54:34.242Z,7.70
2023-04-06T06:58:17.203Z,8.80
2023-04-06T07:01:59.928Z,7.97
2023-04-06T07:05:50.107Z,8.10
2023-04-06T07:09:34.430Z,7.90
2023-04-06T07:13:21.680Z,7.70
2023-04-06T07:17:04.574Z,8.03
2023-04-06T07:20:47.454Z,7.70
2023-04-06T07:24:30.370Z,8.70
2023-04-06T07:28:14.548Z,7.80
2023-04-06T07:31:57.669Z,7.63
2023-04-06T07:35:40.754Z,7.07
2023-04-06T07:39:23.504Z,7.50
2023-04-06T07:43:06.275Z,6.77
2023-04-06T07:46:50.399Z,7.23
2023-04-06T07:50:33.206Z,7.27
2023-04-06T07:54:15.997Z,7.00
2023-04-06T07:57:58.709Z,6.77
2023-04-06T08:01:41.468Z,7.83
2023-04-06T08:05:25.752Z,8.03
2023-04-06T08:09:08.498Z,6.20
2023-04-06T08:12:51.247Z,7.90
2023-04-06T08:16:33.947Z,7.33
2023-04-06T08:20:16.854Z,7.07
2023-04-06T08:24:01.024Z,7.77
2023-04-06T08:27:43.810Z,8.40
2023-04-06T08:31:27.262Z,7.93
2023-04-06T08:35:10.457Z,8.10
2023-04-06T08:38:53.440Z,7.60
2023-04-06T08:42:42.671Z,7.00
2023-04-06T08:46:30.398Z,7.70
2023-04-06T08:50:13.502Z,7.93
2023-04-06T08:53:57.112Z,7.27
2023-04-06T08:57:41.692Z,7.33
2023-04-06T09:01:27.613Z,7.27
2023-04-06T09:05:10.927Z,6.80
2023-04-06T09:08:53.690Z,7.13
2023-04-06T09:12:37.033Z,7.23
2023-04-06T09:16:21.621Z,8.47
2023-04-06T09:20:05.745Z,9.20
2023-04-06T09:23:49.602Z,7.43
2023-04-06T09:27:32.952Z,7.77
2023-04-06T09:31:16.086Z,8.43
2023-04-06T09:35:09.385Z,8.43
2023-04-06T09:38:56.854Z,8.80
2023-04-06T09:42:40.781Z,7.83
2023-04-06T09:46:24.594Z,9.57
2023-04-06T09:50:10.237Z,8.20
2023-04-06T09:53:55.563Z,7.93
2023-04-06T09:57:42.432Z,8.07
2023-04-06T10:01:28.824Z,8.23
2023-04-06T10:05:19.276Z,8.37
2023-04-06T10:09:04.285Z,7.47
2023-04-06T10:12:47.538Z,8.07
2023-04-06T10:16:30.942Z,7.87
2023-04-06T10:20:21.919Z,8.33
2023-04-06T10:24:10.895Z,9.67
2023-04-06T10:28:01.263Z,9.00
2023-04-06T10:31:45.626Z,9.13
2023-04-06T10:35:40.465Z,8.17
2023-04-06T10:39:28.051Z,9.87
2023-04-06T10:43:12.595Z,9.40
2023-04-06T10:46:56.054Z,8.93
2023-04-06T10:50:41.103Z,9.60
2023-04-06T10:54:26.067Z,8.93
2023-04-06T10:58:09.210Z,8.70
2023-04-06T11:01:52.032Z,8.67
2023-04-06T11:05:34.867Z,8.20
2023-04-06T11:09:27.963Z,9.07
2023-04-06T11:13:10.800Z,8.60
2023-04-06T11:16:53.623Z,8.73
2023-04-06T11:20:36.696Z,9.70
2023-04-06T11:24:21.208Z,8.83
2023-04-06T11:28:05.389Z,9.00
2023-04-06T11:31:48.889Z,8.97
2023-04-06T11:35:33.663Z,9.03
2023-04-06T11:39:21.142Z,8.50
2023-04-06T11:43:07.909Z,8.00
2023-04-06T11:46:54.487Z,8.27
2023-04-06T11:50:38.027Z,8.50
2023-04-06T11:54:31.995Z,7.33
2023-04-06T11:58:16.327Z,9.00
2023-04-06T12:01:59.389Z,8.47
2023-04-06T12:05:43.878Z,8.23
2023-04-06T12:09:29.172Z,7.73
2023-04-06T12:13:11.915Z,7.27
2023-04-06T12:16:56.087Z,6.40
2023-04-06T12:20:38.822Z,7.23
2023-04-06T12:24:21.622Z,7.20
2023-04-06T12:28:04.353Z,7.50
2023-04-06T12:31:47.351Z,6.53
2023-04-06T12:35:35.470Z,6.47
2023-04-06T12:39:21.791Z,6.43
2023-04-06T12:43:04.646Z,7.30
2023-04-06T12:46:47.715Z,6.90
2023-04-06T12:50:31.868Z,5.90
2023-04-06T12:54:14.876Z,6.30
2023-04-06T12:57:57.629Z,6.93
2023-04-06T13:01:40.359Z,7.43
2023-04-06T13:05:23.122Z,7.00
2023-04-06T13:09:08.744Z,7.20
2023-04-06T13:12:53.564Z,7.80
2023-04-06T13:16:37.451Z,7.13
2023-04-06T13:20:20.265Z,7.07
2023-04-06T13:24:03.032Z,7.23
2023-04-06T13:27:49.547Z,6.90
2023-04-06T13:31:35.400Z,7.57
2023-04-06T13:35:18.783Z,7.53
2023-04-06T13:39:01.539Z,7.17
2023-04-06T13:42:46.033Z,6.67
2023-04-06T13:46:30.331Z,6.13
2023-04-06T13:50:13.232Z,5.87
2023-04-06T13:53:56.088Z,5.60
2023-04-06T13:57:38.816Z,6.47
2023-04-06T14:01:21.532Z,6.30
2023-04-06T14:05:06.272Z,5.60
2023-04-06T14:08:49.230Z,6.17
2023-04-06T14:12:32.694Z,6.03
2023-04-06T14:16:16.249Z,6.40
2023-04-06T14:19:58.907Z,6.23
2023-04-06T14:23:43.216Z,6.10
2023-04-06T14:27:26.322Z,6.07
2023-04-06T14:31:14.062Z,6.23
2023-04-06T14:34:56.803Z,6.13
2023-04-06T14:38:40.436Z,6.20
2023-04-06T14:42:24.534Z,6.07
2023-04-06T14:46:09.418Z,5.97
2023-04-06T14:49:54.203Z,5.90
2023-04-06T14:53:36.874Z,5.83
2023-04-06T14:57:19.629Z,6.00
2023-04-06T15:01:04.090Z,5.63
2023-04-06T15:04:46.766Z,5.40
2023-04-06T15:08:29.421Z,4.87
2023-04-06T15:12:12.079Z,5.53
2023-04-06T15:15:54.815Z,4.80
2023-04-06T15:19:38.946Z,5.00
2023-04-06T15:23:21.628Z,5.07
2023-04-06T15:27:04.279Z,4.27
2023-04-06T15:30:46.952Z,4.20
2023-04-06T15:34:31.320Z,4.20
2023-04-06T15:38:15.792Z,4.03
2023-04-06T15:41:58.471Z,4.33
2023-04-06T15:45:41.734Z,4.20
2023-04-06T15:49:24.415Z,4.57
2023-04-06T15:53:07.273Z,5.10
2023-04-06T15:56:51.549Z,4.87
2023-04-06T16:00:34.687Z,4.30
2023-04-06T16:04:17.409Z,4.63
2023-04-06T16:08:00.143Z,4.67
2023-04-06T16:11:42.837Z,4.40
2023-04-06T16:15:27.025Z,5.33
2023-04-06T16:19:09.717Z,5.50
2023-04-06T16:22:52.372Z,5.13
2023-04-06T16:26:35.530Z,5.27
2023-04-06T16:30:18.266Z,5.07
2023-04-06T16:34:02.296Z,4.80
2023-04-06T16:37:46.476Z,6.27
2023-04-06T16:41:29.524Z,5.10
2023-04-06T16:45:12.799Z,5.37
2023-04-06T16:48:55.843Z,5.30
2023-04-06T16:52:39.826Z,5.00
2023-04-06T16:56:22.721Z,5.37
2023-04-06T17:00:07.458Z,5.23
2023-04-06T17:03:50.675Z,5.30
2023-04-06T17:07:35.602Z,8.23
2023-04-06T17:11:25.496Z,5.60
2023-04-06T17:15:11.743Z,5.90
2023-04-06T17:18:54.410Z,6.07
2023-04-06T17:22:37.145Z,5.60
2023-04-06T17:26:21.577Z,5.60
2023-04-06T17:30:06.642Z,5.70
2023-04-06T17:33:49.748Z,5.50
2023-04-06T17:37:32.754Z,5.77
2023-04-06T17:41:16.100Z,6.10
2023-04-06T17:45:00.527Z,6.27
2023-04-06T17:48:43.907Z,7.00
2023-04-06T17:52:27.324Z,6.63
2023-04-06T17:56:09.977Z,13.67
2023-04-06T17:59:53.863Z,7.90
2023-04-06T18:03:38.329Z,7.23
2023-04-06T18:07:21.101Z,7.20
2023-04-06T18:11:04.233Z,6.07
2023-04-06T18:14:46.884Z,7.63
2023-04-06T18:18:29.594Z,8.57
2023-04-06T18:22:13.553Z,7.30
2023-04-06T18:25:56.243Z,8.30
2023-04-06T18:29:38.912Z,8.73
2023-04-06T18:33:21.547Z,7.87
2023-04-06T18:37:04.267Z,7.77
2023-04-06T18:40:48.289Z,8.50
2023-04-06T18:44:31.569Z,8.97
2023-04-06T18:48:14.462Z,7.53
2023-04-06T18:51:59.261Z,8.57
2023-04-06T18:55:41.998Z,7.80
2023-04-06T18:59:30.065Z,7.63
2023-04-06T19:03:12.847Z,8.20
2023-04-06T19:06:55.746Z,8.23
2023-04-06T19:10:38.601Z,8.93
2023-04-06T19:14:21.245Z,10.37
2023-04-06T19:18:05.698Z,11.03
2023-04-06T19:21:49.034Z,13.43
2023-04-06T19:25:31.962Z,11.63
2023-04-06T19:29:14.602Z,11.17
2023-04-06T19:32:57.555Z,11.93
2023-04-06T19:36:41.697Z,9.90
2023-04-06T19:40:24.334Z,9.77
2023-04-06T19:44:07.016Z,10.00
2023-04-06T19:47:49.937Z,10.03
2023-04-06T19:51:33.578Z,10.00
2023-04-06T19:55:17.942Z,10.33
2023-04-06T19:59:00.902Z,15.40
2023-04-06T20:02:43.723Z,13.13
2023-04-06T20:06:26.677Z,11.73
2023-04-06T20:10:09.795Z,9.97
2023-04-06T20:13:53.760Z,10.77
2023-04-06T20:17:36.493Z,12.60
2023-04-06T20:21:19.184Z,11.37
2023-04-06T20:25:01.826Z,10.77
2023-04-06T20:28:44.502Z,11.17
2023-04-06T20:32:28.619Z,10.43
2023-04-06T20:36:11.412Z,10.70
2023-04-06T20:39:54.062Z,12.10
2023-04-06T20:43:36.688Z,12.90
2023-04-06T20:47:19.385Z,10.43
2023-04-06T20:51:04.026Z,12.87
2023-04-06T20:54:46.728Z,11.17
2023-04-06T20:58:29.387Z,12.20
2023-04-06T21:02:12.186Z,9.37
2023-04-06T21:05:55.857Z,8.77
2023-04-06T21:09:40.995Z,8.20
2023-04-06T21:13:23.634Z,8.20
2023-04-06T21:17:06.895Z,8.20
2023-04-06T21:20:49.864Z,8.20
2023-04-06T21:24:32.502Z,8.43
2023-04-06T21:28:16.555Z,8.30
2023-04-06T21:31:59.269Z,8.70
2023-04-06T21:35:42.246Z,8.37
2023-04-06T21:39:25.341Z,9.00
2023-04-06T21:43:08.028Z,9.00
2023-04-06T21:46:52.076Z,8.27
2023-04-06T21:50:34.727Z,8.07
2023-04-06T21:54:17.653Z,7.60
2023-04-06T21:58:00.910Z,7.90
2023-04-06T22:01:43.680Z,8.70
2023-04-06T22:05:27.719Z,8.13
2023-04-06T22:09:10.677Z,8.80
2023-04-06T22:12:53.403Z,7.93
2023-04-06T22:16:36.197Z,8.10
2023-04-06T22:20:18.981Z,7.40
2023-04-06T22:24:03.013Z,7.37
2023-04-06T22:27:45.717Z,7.43
2023-04-06T22:31:28.406Z,7.37
2023-04-06T22:35:11.293Z,7.40
2023-04-06T22:38:58.210Z,7.43
2023-04-06T22:42:42.283Z,7.00
2023-04-06T22:46:24.930Z,6.43
2023-04-06T22:50:09.277Z,6.80
2023-04-06T22:53:52.733Z,6.90
2023-04-06T22:57:35.427Z,6.80
2023-04-06T23:01:19.477Z,6.47
2023-04-06T23:05:02.170Z,6.80
2023-04-06T23:08:44.815Z,7.13
2023-04-06T23:12:27.521Z,6.90
2023-04-06T23:16:10.628Z,7.27
2023-04-06T23:19:54.723Z,6.60
2023-04-06T23:23:37.446Z,7.23
2023-04-06T23:27:20.131Z,6.90
2023-04-06T23:31:02.748Z,7.10
2023-04-06T23:34:45.621Z,7.03
2023-04-06T23:38:29.606Z,5.97
2023-04-06T23:42:12.253Z,6.60
2023-04-06T23:45:54.969Z,6.57
2023-04-06T23:49:37.606Z,6.43
2023-04-06T23:53:20.232Z,6.40
2023-04-06T23:57:04.501Z,5.70
